createdAt,value
2019-05-26T00:00:50.658Z,69.71
2019-05-26T00:03:19.180Z,69.95
2019-05-26T00:05:47.639Z,70.23
2019-05-26T00:08:16.478Z,70.57
2019-05-26T00:10:44.852Z,70.75
2019-05-26T00:13:13.543Z,70.52
2019-05-26T00:15:41.941Z,71.04
2019-05-26T00:18:10.394Z,71.76
2019-05-26T00:20:38.769Z,71.37
2019-05-26T00:23:07.587Z,72.07
2019-05-26T00:25:35.939Z,72.63
2019-05-26T00:28:04.509Z,72.66
2019-05-26T00:30:33.336Z,73.04
2019-05-26T00:33:01.726Z,73.25
2019-05-26T00:35:30.361Z,73.58
2019-05-26T00:37:58.835Z,73.41
2019-05-26T00:40:27.673Z,73.16
2019-05-26T00:42:56.135Z,72.56
2019-05-26T00:45:24.838Z,72.35
2019-05-26T00:47:53.320Z,72.75
2019-05-26T00:50:22.120Z,72.65
2019-05-26T00:52:50.666Z,73.58
2019-05-26T00:55:19.203Z,73.96
2019-05-26T00:57:47.701Z,73.94
2019-05-26T01:00:19.370Z,73.74
2019-05-26T01:02:47.779Z,73.48
2019-05-26T01:05:16.227Z,73.51
2019-05-26T01:07:44.638Z,73.34
2019-05-26T01:10:13.686Z,73.31
2019-05-26T01:12:42.105Z,73.11
2019-05-26T01:15:10.899Z,73.10
2019-05-26T01:17:39.297Z,72.85
2019-05-26T01:20:07.908Z,72.90
2019-05-26T01:22:36.446Z,73.09
2019-05-26T01:25:07.019Z,73.09
2019-05-26T01:27:35.680Z,73.36
2019-05-26T01:30:06.096Z,72.91
2019-05-26T01:32:34.560Z,72.65
2019-05-26T01:35:03.141Z,72.88
2019-05-26T01:37:31.847Z,72.79
2019-05-26T01:40:00.385Z,72.99
2019-05-26T01:42:28.821Z,73.00
2019-05-26T01:44:57.278Z,73.10
2019-05-26T01:47:26.116Z,73.18
2019-05-26T01:49:54.551Z,73.01
2019-05-26T01:52:23.014Z,73.04
2019-05-26T01:54:51.389Z,73.18
2019-05-26T01:57:20.135Z,72.98
2019-05-26T01:59:49.318Z,73.21
2019-05-26T02:02:17.789Z,73.57
2019-05-26T02:04:46.164Z,73.91
2019-05-26T02:07:14.714Z,73.85
2019-05-26T02:09:43.088Z,74.07
2019-05-26T02:12:11.546Z,74.23
2019-05-26T02:14:39.997Z,74.42
2019-05-26T02:17:08.470Z,75.07
2019-05-26T02:19:36.894Z,74.88
2019-05-26T02:22:06.046Z,74.87
2019-05-26T02:24:34.422Z,74.91
2019-05-26T02:27:02.990Z,74.52
2019-05-26T02:29:31.496Z,74.88
2019-05-26T02:32:00.002Z,75.02
2019-05-26T02:34:28.716Z,75.54
2019-05-26T02:36:57.085Z,75.83
2019-05-26T02:39:25.881Z,76.58
2019-05-26T02:41:54.359Z,76.58
2019-05-26T02:44:22.749Z,76.61
2019-05-26T02:46:51.221Z,76.79
2019-05-26T02:49:19.719Z,76.92
2019-05-26T02:51:48.601Z,76.63
2019-05-26T02:54:17.075Z,76.83
2019-05-26T02:56:45.552Z,76.72
2019-05-26T02:59:13.958Z,76.49
2019-05-26T03:02:01.463Z,76.55
2019-05-26T03:04:12.840Z,76.56
2019-05-26T03:06:42.589Z,77.09
2019-05-26T03:09:22.704Z,77.04
2019-05-26T03:11:41.689Z,76.61
2019-05-26T03:14:11.370Z,77.00
2019-05-26T03:16:41.282Z,77.49
2019-05-26T03:19:09.819Z,77.73
2019-05-26T03:21:38.672Z,77.97
2019-05-26T03:24:07.136Z,78.49
2019-05-26T03:26:35.495Z,78.55
2019-05-26T03:29:04.053Z,79.18
2019-05-26T03:31:32.413Z,79.06
2019-05-26T03:34:01.038Z,79.17
2019-05-26T03:36:29.731Z,78.95
2019-05-26T03:38:58.479Z,78.16
2019-05-26T03:41:27.162Z,77.90
2019-05-26T03:43:55.888Z,78.32
2019-05-26T03:46:24.409Z,78.39
2019-05-26T03:48:53.225Z,77.66
2019-05-26T03:51:22.166Z,77.05
2019-05-26T03:53:50.600Z,77.28
2019-05-26T03:56:19.131Z,76.92
2019-05-26T03:58:47.483Z,77.12
2019-05-26T04:01:15.963Z,76.91
2019-05-26T04:03:44.480Z,76.77
2019-05-26T04:06:12.951Z,76.53
2019-05-26T04:08:41.421Z,77.58
2019-05-26T04:11:10.281Z,77.05
2019-05-26T04:13:38.735Z,77.08
2019-05-26T04:16:07.761Z,77.41
2019-05-26T04:18:36.206Z,77.57
2019-05-26T04:21:04.990Z,78.10
2019-05-26T04:23:33.494Z,77.56
2019-05-26T04:26:02.223Z,77.58
2019-05-26T04:28:31.113Z,77.75
2019-05-26T04:30:59.527Z,78.08
2019-05-26T04:33:28.058Z,77.71
2019-05-26T04:35:56.500Z,77.41
2019-05-26T04:38:25.234Z,77.38
2019-05-26T04:40:53.606Z,78.46
2019-05-26T04:43:22.398Z,78.16
2019-05-26T04:45:51.194Z,78.39
2019-05-26T04:48:19.619Z,78.35
2019-05-26T04:50:48.000Z,78.82
2019-05-26T04:53:16.405Z,78.86
2019-05-26T04:55:44.775Z,79.12
2019-05-26T04:58:13.171Z,79.22
2019-05-26T05:00:41.711Z,78.98
2019-05-26T05:03:10.164Z,78.96
2019-05-26T05:05:38.626Z,79.55
2019-05-26T05:08:07.107Z,79.08
2019-05-26T05:10:42.245Z,79.64
2019-05-26T05:13:05.729Z,79.14
2019-05-26T05:15:34.187Z,78.20
2019-05-26T05:18:02.629Z,77.98
2019-05-26T05:20:31.179Z,78.36
2019-05-26T05:22:59.602Z,78.66
2019-05-26T05:25:28.067Z,78.37
2019-05-26T05:27:56.518Z,78.42
2019-05-26T05:30:25.034Z,78.16
2019-05-26T05:32:53.569Z,77.95
2019-05-26T05:35:22.094Z,77.46
2019-05-26T05:37:50.602Z,77.39
2019-05-26T05:40:21.280Z,76.46
2019-05-26T05:42:49.711Z,76.62
2019-05-26T05:45:18.573Z,75.82
2019-05-26T05:47:46.913Z,75.64
2019-05-26T05:50:15.436Z,76.01
2019-05-26T05:52:44.205Z,75.43
2019-05-26T05:55:12.720Z,75.00
2019-05-26T05:57:41.160Z,73.88
2019-05-26T06:00:11.585Z,73.73
2019-05-26T06:02:40.047Z,73.28
2019-05-26T06:05:08.898Z,73.56
2019-05-26T06:07:37.294Z,73.71
2019-05-26T06:10:09.072Z,73.69
2019-05-26T06:12:37.655Z,73.48
2019-05-26T06:15:14.439Z,73.00
2019-05-26T06:17:43.030Z,72.82
2019-05-26T06:20:11.867Z,72.36
2019-05-26T06:22:40.292Z,71.72
2019-05-26T06:25:10.326Z,71.72
2019-05-26T06:27:38.720Z,71.76
2019-05-26T06:30:09.058Z,71.25
2019-05-26T06:32:37.466Z,70.87
2019-05-26T06:35:06.183Z,71.07
2019-05-26T06:37:35.061Z,70.94
2019-05-26T06:40:05.160Z,70.14
2019-05-26T06:42:33.624Z,69.85
2019-05-26T06:45:02.037Z,68.51
2019-05-26T06:47:30.438Z,68.30
2019-05-26T06:49:58.818Z,67.00
2019-05-26T06:52:27.199Z,66.04
2019-05-26T06:54:55.672Z,65.40
2019-05-26T06:57:24.612Z,63.70
2019-05-26T06:59:53.069Z,64.09
2019-05-26T07:02:21.500Z,63.93
2019-05-26T07:04:50.473Z,64.56
2019-05-26T07:07:18.879Z,63.72
2019-05-26T07:09:47.253Z,62.15
2019-05-26T07:12:15.637Z,61.30
2019-05-26T07:14:44.066Z,60.14
2019-05-26T07:17:12.554Z,60.31
2019-05-26T07:19:40.981Z,60.00
2019-05-26T07:22:09.743Z,59.39
2019-05-26T07:24:38.274Z,58.91
2019-05-26T07:27:06.810Z,58.98
2019-05-26T07:29:35.175Z,57.42
2019-05-26T07:32:04.441Z,57.79
2019-05-26T07:34:33.224Z,58.22
2019-05-26T07:37:01.606Z,58.40
2019-05-26T07:39:30.057Z,59.49
2019-05-26T07:42:10.168Z,59.55
2019-05-26T07:44:28.766Z,58.53
2019-05-26T07:46:57.185Z,58.47
2019-05-26T07:49:25.626Z,59.05
2019-05-26T07:51:54.171Z,59.07
2019-05-26T07:54:25.767Z,58.37
2019-05-26T07:56:52.791Z,58.41
2019-05-26T07:59:21.255Z,58.10
2019-05-26T08:01:49.736Z,58.50
2019-05-26T08:04:18.221Z,57.81
2019-05-26T08:06:46.646Z,56.67
2019-05-26T08:09:15.391Z,57.28
2019-05-26T08:11:43.889Z,56.64
2019-05-26T08:14:12.345Z,57.00
2019-05-26T08:16:40.875Z,57.73
2019-05-26T08:19:09.326Z,57.08
2019-05-26T08:21:38.128Z,57.08
2019-05-26T08:24:06.922Z,55.76
2019-05-26T08:26:35.495Z,55.79
2019-05-26T08:29:03.959Z,55.42
2019-05-26T08:31:32.376Z,55.22
2019-05-26T08:34:00.883Z,55.11
2019-05-26T08:36:29.265Z,54.63
2019-05-26T08:38:57.712Z,53.86
2019-05-26T08:41:26.174Z,54.12
2019-05-26T08:43:54.695Z,54.10
2019-05-26T08:46:23.175Z,53.75
2019-05-26T08:48:51.894Z,53.13
2019-05-26T08:51:20.331Z,52.68
2019-05-26T08:53:48.795Z,52.28
2019-05-26T08:56:17.253Z,51.04
2019-05-26T08:58:45.873Z,51.61
2019-05-26T09:01:14.255Z,50.98
2019-05-26T09:03:42.700Z,50.25
2019-05-26T09:06:11.140Z,50.55
2019-05-26T09:08:39.632Z,50.23
2019-05-26T09:11:08.081Z,49.54
2019-05-26T09:13:36.874Z,49.45
2019-05-26T09:16:07.811Z,48.99
2019-05-26T09:18:36.326Z,47.85
2019-05-26T09:21:04.874Z,47.64
2019-05-26T09:23:33.353Z,47.75
2019-05-26T09:26:01.835Z,47.36
2019-05-26T09:28:30.339Z,47.93
2019-05-26T09:30:59.117Z,48.86
2019-05-26T09:33:27.811Z,49.00
2019-05-26T09:35:56.277Z,49.01
2019-05-26T09:38:24.922Z,48.92
2019-05-26T09:40:53.319Z,48.84
2019-05-26T09:43:21.681Z,49.39
2019-05-26T09:45:50.219Z,49.38
2019-05-26T09:48:18.616Z,48.89
2019-05-26T09:50:47.269Z,48.82
2019-05-26T09:53:16.139Z,48.89
2019-05-26T09:55:44.556Z,48.49
2019-05-26T09:58:12.950Z,48.14
2019-05-26T10:00:43.380Z,47.38
2019-05-26T10:03:11.832Z,48.18
2019-05-26T10:05:40.556Z,47.51
2019-05-26T10:08:08.934Z,47.48
2019-05-26T10:10:37.382Z,47.54
2019-05-26T10:13:06.066Z,47.75
2019-05-26T10:15:34.585Z,47.65
2019-05-26T10:18:04.811Z,47.72
2019-05-26T10:20:33.263Z,47.38
2019-05-26T10:23:01.910Z,47.16
2019-05-26T10:25:30.396Z,46.87
2019-05-26T10:27:59.100Z,46.88
2019-05-26T10:30:27.524Z,46.69
2019-05-26T10:32:56.069Z,46.43
2019-05-26T10:35:24.537Z,46.37
2019-05-26T10:37:52.935Z,46.61
2019-05-26T10:40:21.402Z,46.81
2019-05-26T10:42:49.934Z,46.62
2019-05-26T10:45:19.330Z,46.37
2019-05-26T10:47:47.813Z,46.45
2019-05-26T10:50:16.723Z,46.94
2019-05-26T10:52:45.287Z,46.63
2019-05-26T10:55:13.804Z,45.92
2019-05-26T10:57:42.204Z,45.71
2019-05-26T11:00:10.876Z,44.82
2019-05-26T11:02:39.723Z,44.81
2019-05-26T11:05:08.367Z,44.41
2019-05-26T11:07:36.922Z,44.31
2019-05-26T11:10:06.837Z,43.78
2019-05-26T11:12:35.391Z,45.02
2019-05-26T11:15:06.149Z,45.31
2019-05-26T11:17:34.688Z,44.73
2019-05-26T11:20:04.699Z,44.72
2019-05-26T11:22:33.239Z,43.61
2019-05-26T11:25:01.849Z,43.25
2019-05-26T11:27:30.497Z,43.44
2019-05-26T11:29:58.930Z,43.92
2019-05-26T11:32:27.550Z,44.56
2019-05-26T11:35:01.559Z,45.27
2019-05-26T11:37:26.255Z,45.26
2019-05-26T11:39:54.653Z,44.47
2019-05-26T11:42:23.064Z,43.19
2019-05-26T11:44:51.442Z,42.06
2019-05-26T11:47:19.903Z,42.07
2019-05-26T11:49:48.294Z,41.74
2019-05-26T11:52:20.085Z,41.88
2019-05-26T11:54:49.801Z,41.15
2019-05-26T11:57:18.199Z,41.29
2019-05-26T11:59:47.462Z,42.13
2019-05-26T12:02:16.087Z,42.58
2019-05-26T12:04:44.638Z,42.99
2019-05-26T12:07:13.319Z,43.13
2019-05-26T12:09:41.902Z,42.87
2019-05-26T12:12:10.439Z,42.39
2019-05-26T12:14:38.997Z,41.53
2019-05-26T12:17:07.430Z,40.59
2019-05-26T12:19:35.984Z,40.15
2019-05-26T12:22:04.937Z,40.95
2019-05-26T12:24:33.322Z,41.30
2019-05-26T12:27:01.747Z,41.28
2019-05-26T12:29:30.433Z,40.98
2019-05-26T12:31:58.891Z,39.83
2019-05-26T12:34:27.346Z,40.73
2019-05-26T12:36:56.087Z,41.56
2019-05-26T12:39:24.670Z,41.88
2019-05-26T12:41:53.125Z,41.93
2019-05-26T12:44:21.646Z,41.20
2019-05-26T12:46:50.088Z,41.88
2019-05-26T12:49:18.491Z,40.55
2019-05-26T12:51:46.922Z,40.87
2019-05-26T12:54:15.770Z,40.22
2019-05-26T12:56:44.156Z,39.35
2019-05-26T12:59:13.221Z,39.09
2019-05-26T13:01:41.806Z,39.49
2019-05-26T13:04:10.310Z,39.97
2019-05-26T13:06:38.913Z,38.62
2019-05-26T13:09:10.142Z,38.29
2019-05-26T13:11:43.440Z,38.47
2019-05-26T13:14:11.874Z,38.30
2019-05-26T13:16:40.331Z,39.38
2019-05-26T13:19:08.824Z,39.17
2019-05-26T13:21:37.302Z,39.70
2019-05-26T13:24:06.127Z,40.01
2019-05-26T13:26:34.486Z,40.35
2019-05-26T13:29:04.577Z,40.78
2019-05-26T13:31:33.249Z,40.89
2019-05-26T13:34:03.194Z,40.85
2019-05-26T13:36:38.555Z,40.64
2019-05-26T13:39:08.668Z,40.76
2019-05-26T13:41:38.577Z,41.13
2019-05-26T13:44:07.105Z,40.67
2019-05-26T13:46:35.492Z,41.15
2019-05-26T13:49:06.872Z,41.04
2019-05-26T13:51:35.320Z,39.98
2019-05-26T13:54:05.919Z,39.29
2019-05-26T13:56:34.406Z,38.50
2019-05-26T13:59:04.508Z,38.60
2019-05-26T14:01:32.891Z,38.75
2019-05-26T14:04:06.762Z,38.99
2019-05-26T14:06:35.340Z,39.34
2019-05-26T14:09:05.296Z,39.17
2019-05-26T14:11:35.084Z,39.19
2019-05-26T14:14:03.611Z,39.50
2019-05-26T14:16:32.054Z,39.62
2019-05-26T14:19:04.820Z,39.47
2019-05-26T14:21:33.342Z,39.57
2019-05-26T14:24:03.131Z,39.85
2019-05-26T14:26:31.584Z,39.86
2019-05-26T14:29:00.010Z,40.10
2019-05-26T14:31:28.702Z,39.95
2019-05-26T14:33:57.275Z,40.24
2019-05-26T14:36:25.729Z,39.99
2019-05-26T14:41:42.268Z,40.49
2019-05-26T14:44:10.808Z,40.34
2019-05-26T14:46:39.311Z,40.51
2019-05-26T14:49:07.997Z,40.26
2019-05-26T14:51:36.590Z,40.39
2019-05-26T14:54:05.109Z,40.16
2019-05-26T14:56:33.605Z,40.60
2019-05-26T14:59:03.809Z,40.70
2019-05-26T15:01:32.514Z,40.79
2019-05-26T15:04:00.945Z,40.84
2019-05-26T15:06:33.721Z,41.00
2019-05-26T15:09:02.156Z,40.96
2019-05-26T15:11:30.980Z,41.95
2019-05-26T15:13:59.409Z,41.81
2019-05-26T15:16:28.245Z,41.31
2019-05-26T15:18:58.437Z,41.09
2019-05-26T15:21:26.972Z,41.11
2019-05-26T15:23:58.412Z,41.52
2019-05-26T15:26:27.143Z,42.32
2019-05-26T15:28:58.354Z,42.69
2019-05-26T15:31:26.942Z,43.25
2019-05-26T15:33:55.363Z,43.68
2019-05-26T15:36:23.767Z,43.77
2019-05-26T15:38:52.543Z,43.91
2019-05-26T15:41:21.335Z,43.68
2019-05-26T15:43:49.739Z,43.70
2019-05-26T15:46:25.340Z,43.98
2019-05-26T15:48:52.030Z,43.96
2019-05-26T15:51:20.975Z,44.56
2019-05-26T15:53:49.548Z,44.56
2019-05-26T15:56:17.998Z,44.79
2019-05-26T15:58:46.550Z,45.43
2019-05-26T16:01:15.076Z,45.10
2019-05-26T16:03:43.600Z,45.12
2019-05-26T16:06:12.196Z,45.39
2019-05-26T16:08:40.743Z,45.41
2019-05-26T16:11:10.784Z,45.62
2019-05-26T16:13:39.190Z,45.44
2019-05-26T16:16:07.938Z,45.57
2019-05-26T16:18:36.416Z,45.67
2019-05-26T16:21:05.021Z,45.59
2019-05-26T16:23:33.573Z,45.66
2019-05-26T16:26:02.023Z,45.20
2019-05-26T16:28:30.397Z,45.72
2019-05-26T16:30:58.842Z,45.70
2019-05-26T16:33:27.365Z,45.67
2019-05-26T16:35:55.857Z,45.84
2019-05-26T16:38:24.453Z,45.56
2019-05-26T16:40:53.173Z,45.59
2019-05-26T16:43:21.695Z,45.05
2019-05-26T16:45:56.214Z,45.22
2019-05-26T16:48:20.358Z,45.60
2019-05-26T16:50:48.878Z,45.74
2019-05-26T16:53:17.281Z,45.39
2019-05-26T16:55:45.748Z,45.36
2019-05-26T16:58:14.264Z,45.85
2019-05-26T17:00:42.720Z,45.87
2019-05-26T17:03:11.098Z,45.90
2019-05-26T17:05:39.770Z,45.93
2019-05-26T17:08:08.952Z,45.93
2019-05-26T17:10:37.491Z,45.58
2019-05-26T17:13:06.017Z,45.70
2019-05-26T17:15:34.484Z,45.69
2019-05-26T17:18:02.880Z,45.85
2019-05-26T17:20:31.362Z,45.95
2019-05-26T17:22:59.714Z,46.16
2019-05-26T17:25:28.253Z,46.43
2019-05-26T17:27:56.684Z,46.42
2019-05-26T17:30:25.438Z,46.53
2019-05-26T17:32:53.848Z,46.89
2019-05-26T17:35:22.741Z,46.90
2019-05-26T17:37:51.118Z,47.20
2019-05-26T17:40:22.028Z,47.40
2019-05-26T17:42:50.966Z,47.26
2019-05-26T17:45:19.554Z,47.29
2019-05-26T17:47:48.003Z,47.30
2019-05-26T17:50:16.824Z,47.27
2019-05-26T17:52:45.738Z,47.52
2019-05-26T17:55:15.745Z,47.57
2019-05-26T17:57:44.266Z,47.87
2019-05-26T18:00:14.536Z,47.74
2019-05-26T18:02:43.326Z,47.97
2019-05-26T18:05:12.061Z,47.89
2019-05-26T18:07:40.806Z,48.19
2019-05-26T18:10:09.632Z,48.02
2019-05-26T18:12:38.091Z,48.05
2019-05-26T18:15:10.787Z,48.18
2019-05-26T18:17:46.831Z,47.94
2019-05-26T18:20:10.180Z,48.05
2019-05-26T18:22:38.749Z,48.13
2019-05-26T18:25:08.497Z,48.27
2019-05-26T18:27:37.265Z,48.28
2019-05-26T18:30:06.522Z,48.27
2019-05-26T18:32:35.071Z,48.57
2019-05-26T18:35:05.423Z,48.41
2019-05-26T18:37:34.269Z,48.55
2019-05-26T18:40:03.157Z,48.40
2019-05-26T18:42:31.692Z,48.59
2019-05-26T18:45:00.141Z,48.51
2019-05-26T18:47:28.507Z,48.79
2019-05-26T18:49:56.957Z,48.99
2019-05-26T18:52:25.690Z,48.91
2019-05-26T18:54:54.062Z,49.04
2019-05-26T18:57:22.639Z,49.08
2019-05-26T18:59:51.058Z,48.96
2019-05-26T19:02:19.485Z,49.08
2019-05-26T19:04:48.425Z,49.00
2019-05-26T19:07:16.911Z,49.19
2019-05-26T19:09:45.294Z,49.23
2019-05-26T19:12:14.104Z,49.37
2019-05-26T19:14:42.605Z,49.36
2019-05-26T19:17:11.293Z,49.39
2019-05-26T19:19:40.013Z,49.43
2019-05-26T19:22:08.795Z,49.35
2019-05-26T19:24:37.280Z,49.60
2019-05-26T19:27:05.732Z,49.63
2019-05-26T19:29:34.121Z,49.78
2019-05-26T19:32:02.551Z,49.75
2019-05-26T19:34:31.161Z,49.96
2019-05-26T19:36:59.560Z,49.99
2019-05-26T19:39:27.991Z,50.03
2019-05-26T19:41:56.367Z,50.11
2019-05-26T19:44:24.756Z,50.09
2019-05-26T19:46:53.414Z,50.21
2019-05-26T19:49:21.921Z,50.24
2019-05-26T19:51:50.435Z,50.37
2019-05-26T19:54:18.908Z,50.12
2019-05-26T19:56:47.798Z,50.16
2019-05-26T19:59:16.377Z,50.26
2019-05-26T20:01:45.062Z,50.33
2019-05-26T20:04:13.962Z,50.18
2019-05-26T20:06:44.001Z,50.42
2019-05-26T20:09:12.706Z,50.13
2019-05-26T20:11:41.155Z,50.22
2019-05-26T20:14:09.805Z,50.52
2019-05-26T20:16:38.357Z,50.57
2019-05-26T20:19:06.929Z,50.61
2019-05-26T20:21:36.921Z,50.70
2019-05-26T20:24:05.648Z,50.85
2019-05-26T20:26:36.337Z,50.93
2019-05-26T20:29:06.629Z,51.02
2019-05-26T20:31:36.111Z,51.05
2019-05-26T20:34:04.662Z,51.13
2019-05-26T20:36:33.140Z,51.19
2019-05-26T20:39:02.374Z,51.22
2019-05-26T20:41:31.005Z,51.21
2019-05-26T20:43:59.520Z,51.33
2019-05-26T20:46:28.035Z,51.50
2019-05-26T20:48:56.534Z,51.46
2019-05-26T20:51:25.197Z,51.67
2019-05-26T20:53:53.987Z,51.72
2019-05-26T20:56:22.515Z,51.77
2019-05-26T20:58:53.521Z,51.83
2019-05-26T21:01:22.496Z,51.82
2019-05-26T21:03:51.498Z,52.10
2019-05-26T21:06:20.954Z,52.20
2019-05-26T21:08:49.505Z,52.12
2019-05-26T21:11:18.084Z,52.26
2019-05-26T21:13:46.826Z,52.22
2019-05-26T21:16:16.314Z,52.57
2019-05-26T21:18:45.040Z,52.57
2019-05-26T21:21:14.759Z,52.69
2019-05-26T21:23:43.314Z,52.76
2019-05-26T21:26:11.699Z,52.86
2019-05-26T21:28:40.089Z,52.82
2019-05-26T21:31:09.762Z,52.93
2019-05-26T21:33:38.170Z,53.02
2019-05-26T21:36:07.145Z,53.18
2019-05-26T21:38:36.067Z,53.21
2019-05-26T21:41:04.765Z,53.37
2019-05-26T21:43:33.565Z,53.41
2019-05-26T21:46:02.484Z,53.56
2019-05-26T21:48:34.521Z,53.66
2019-05-26T21:51:01.030Z,53.78
2019-05-26T21:53:29.440Z,53.97
2019-05-26T21:55:57.790Z,53.93
2019-05-26T21:58:26.261Z,53.92
2019-05-26T22:00:55.044Z,54.03
2019-05-26T22:03:23.628Z,54.20
2019-05-26T22:05:52.214Z,54.35
2019-05-26T22:08:20.636Z,54.48
2019-05-26T22:10:49.023Z,54.50
2019-05-26T22:13:17.836Z,54.54
2019-05-26T22:15:46.195Z,54.73
2019-05-26T22:18:14.871Z,54.94
2019-05-26T22:20:43.692Z,55.14
2019-05-26T22:23:12.390Z,55.08
2019-05-26T22:25:42.845Z,55.21
2019-05-26T22:28:11.806Z,55.19
2019-05-26T22:30:40.171Z,55.25
2019-05-26T22:33:08.728Z,55.31
2019-05-26T22:35:37.103Z,55.46
2019-05-26T22:38:05.632Z,55.28
2019-05-26T22:40:34.102Z,55.40
2019-05-26T22:43:02.899Z,55.32
2019-05-26T22:45:31.413Z,55.35
2019-05-26T22:47:59.821Z,55.52
2019-05-26T22:50:28.339Z,55.42
2019-05-26T22:52:56.829Z,55.33
2019-05-26T22:55:25.831Z,55.29
2019-05-26T22:57:54.371Z,55.46
2019-05-26T23:00:24.120Z,55.40
2019-05-26T23:02:52.914Z,55.56
2019-05-26T23:05:21.373Z,55.44
2019-05-26T23:07:49.851Z,55.38
2019-05-26T23:10:18.373Z,55.51
2019-05-26T23:12:46.917Z,55.49
2019-05-26T23:15:15.565Z,55.45
2019-05-26T23:17:44.165Z,55.51
2019-05-26T23:20:12.624Z,55.49
2019-05-26T23:22:41.154Z,55.48
2019-05-26T23:25:09.682Z,55.42
2019-05-26T23:27:38.155Z,55.62
2019-05-26T23:30:08.057Z,55.40
2019-05-26T23:32:36.472Z,55.43
2019-05-26T23:35:08.039Z,55.52
2019-05-26T23:37:36.682Z,55.48
2019-05-26T23:40:07.008Z,55.29
2019-05-26T23:42:35.364Z,55.48
2019-05-26T23:45:06.018Z,55.46
2019-05-26T23:47:34.496Z,55.26
2019-05-26T23:50:03.396Z,55.17
2019-05-26T23:52:31.776Z,55.38
2019-05-26T23:55:00.243Z,55.38
2019-05-26T23:57:28.696Z,55.11
2019-05-26T23:59:57.250Z,55.15
